sensor_id;sensor_type;location;lat;lon;timestamp;P1;durP1;ratioP1;P2;durP2;ratioP2
57697;SDS011;43531;52.152;6.366;2022-12-17T00:01:02;40.35;;;23.20;;
57697;SDS011;43531;52.152;6.366;2022-12-17T00:01:54;48.20;;;24.48;;
57697;SDS011;43531;52.152;6.366;2022-12-17T00:02:44;46.45;;;24.20;;
57697;SDS011;43531;52.152;6.366;2022-12-17T00:03:34;41.42;;;23.58;;
57697;SDS011;43531;52.152;6.366;2022-12-17T00:04:27;40.70;;;22.80;;
57697;SDS011;43531;52.152;6.366;2022-12-17T00:05:17;44.50;;;24.52;;
57697;SDS011;43531;52.152;6.366;2022-12-17T00:06:08;39.30;;;23.90;;
57697;SDS011;43531;52.152;6.366;2022-12-17T00:06:58;38.30;;;23.02;;
57697;SDS011;43531;52.152;6.366;2022-12-17T00:07:57;43.13;;;24.25;;
57697;SDS011;43531;52.152;6.366;2022-12-17T00:08:48;44.28;;;25.55;;
57697;SDS011;43531;52.152;6.366;2022-12-17T00:09:38;41.20;;;24.60;;
57697;SDS011;43531;52.152;6.366;2022-12-17T00:10:28;38.65;;;23.27;;
57697;SDS011;43531;52.152;6.366;2022-12-17T00:11:18;50.70;;;25.05;;
57697;SDS011;43531;52.152;6.366;2022-12-17T00:12:09;45.72;;;24.15;;
57697;SDS011;43531;52.152;6.366;2022-12-17T00:12:59;50.55;;;25.10;;
57697;SDS011;43531;52.152;6.366;2022-12-17T00:13:49;44.78;;;25.95;;
57697;SDS011;43531;52.152;6.366;2022-12-17T00:14:39;40.28;;;23.17;;
57697;SDS011;43531;52.152;6.366;2022-12-17T00:15:33;42.45;;;25.35;;
57697;SDS011;43531;52.152;6.366;2022-12-17T00:16:23;38.13;;;23.50;;
57697;SDS011;43531;52.152;6.366;2022-12-17T00:17:13;47.15;;;25.27;;
57697;SDS011;43531;52.152;6.366;2022-12-17T00:18:04;41.17;;;24.55;;
57697;SDS011;43531;52.152;6.366;2022-12-17T00:18:55;44.05;;;24.52;;
57697;SDS011;43531;52.152;6.366;2022-12-17T00:19:45;43.13;;;24.20;;
57697;SDS011;43531;52.152;6.366;2022-12-17T00:20:35;45.25;;;25.90;;
57697;SDS011;43531;52.152;6.366;2022-12-17T00:21:42;44.17;;;23.50;;
57697;SDS011;43531;52.152;6.366;2022-12-17T00:22:32;34.35;;;23.38;;
57697;SDS011;43531;52.152;6.366;2022-12-17T00:23:23;42.10;;;25.83;;
57697;SDS011;43531;52.152;6.366;2022-12-17T00:24:13;43.22;;;25.65;;
57697;SDS011;43531;52.152;6.366;2022-12-17T00:25:05;42.92;;;25.52;;
57697;SDS011;43531;52.152;6.366;2022-12-17T00:25:55;41.60;;;23.63;;
57697;SDS011;43531;52.152;6.366;2022-12-17T00:26:45;43.92;;;25.83;;
57697;SDS011;43531;52.152;6.366;2022-12-17T00:27:36;42.90;;;24.83;;
57697;SDS011;43531;52.152;6.366;2022-12-17T00:28:26;42.42;;;24.65;;
57697;SDS011;43531;52.152;6.366;2022-12-17T00:29:17;42.17;;;24.33;;
57697;SDS011;43531;52.152;6.366;2022-12-17T00:30:07;38.10;;;23.38;;
57697;SDS011;43531;52.152;6.366;2022-12-17T00:30:58;37.53;;;22.73;;
57697;SDS011;43531;52.152;6.366;2022-12-17T00:31:48;45.33;;;23.60;;
57697;SDS011;43531;52.152;6.366;2022-12-17T00:32:40;38.53;;;23.17;;
57697;SDS011;43531;52.152;6.366;2022-12-17T00:33:30;37.45;;;22.77;;
57697;SDS011;43531;52.152;6.366;2022-12-17T00:34:20;45.63;;;24.30;;
57697;SDS011;43531;52.152;6.366;2022-12-17T00:35:10;41.25;;;22.33;;
57697;SDS011;43531;52.152;6.366;2022-12-17T00:36:00;43.05;;;22.98;;
57697;SDS011;43531;52.152;6.366;2022-12-17T00:36:50;46.13;;;25.10;;
57697;SDS011;43531;52.152;6.366;2022-12-17T00:37:40;41.72;;;24.90;;
57697;SDS011;43531;52.152;6.366;2022-12-17T00:38:31;42.88;;;25.42;;
57697;SDS011;43531;52.152;6.366;2022-12-17T00:39:22;41.08;;;25.58;;
57697;SDS011;43531;52.152;6.366;2022-12-17T00:40:12;44.55;;;25.50;;
57697;SDS011;43531;52.152;6.366;2022-12-17T00:41:03;43.15;;;24.70;;
57697;SDS011;43531;52.152;6.366;2022-12-17T00:41:56;40.58;;;24.17;;
57697;SDS011;43531;52.152;6.366;2022-12-17T00:42:46;42.70;;;23.50;;
57697;SDS011;43531;52.152;6.366;2022-12-17T00:43:36;35.78;;;23.30;;
57697;SDS011;43531;52.152;6.366;2022-12-17T00:44:29;41.78;;;24.25;;
57697;SDS011;43531;52.152;6.366;2022-12-17T00:45:20;44.95;;;24.80;;
57697;SDS011;43531;52.152;6.366;2022-12-17T00:46:10;43.25;;;25.02;;
57697;SDS011;43531;52.152;6.366;2022-12-17T00:47:00;46.03;;;24.52;;
57697;SDS011;43531;52.152;6.366;2022-12-17T00:47:52;45.67;;;26.98;;
57697;SDS011;43531;52.152;6.366;2022-12-17T00:48:42;42.08;;;24.63;;
57697;SDS011;43531;52.152;6.366;2022-12-17T00:49:33;46.63;;;25.50;;
57697;SDS011;43531;52.152;6.366;2022-12-17T00:50:28;44.97;;;25.75;;
57697;SDS011;43531;52.152;6.366;2022-12-17T00:51:18;42.42;;;22.15;;
57697;SDS011;43531;52.152;6.366;2022-12-17T00:52:08;46.65;;;26.95;;
57697;SDS011;43531;52.152;6.366;2022-12-17T00:52:59;46.42;;;25.05;;
57697;SDS011;43531;52.152;6.366;2022-12-17T00:53:49;48.75;;;26.15;;
57697;SDS011;43531;52.152;6.366;2022-12-17T00:54:39;46.80;;;24.40;;
57697;SDS011;43531;52.152;6.366;2022-12-17T00:55:29;42.88;;;24.27;;
57697;SDS011;43531;52.152;6.366;2022-12-17T00:56:19;46.88;;;26.38;;
57697;SDS011;43531;52.152;6.366;2022-12-17T00:57:09;43.42;;;25.10;;
57697;SDS011;43531;52.152;6.366;2022-12-17T00:57:59;42.05;;;25.98;;
57697;SDS011;43531;52.152;6.366;2022-12-17T00:58:50;44.05;;;25.90;;
57697;SDS011;43531;52.152;6.366;2022-12-17T00:59:40;46.25;;;25.73;;
57697;SDS011;43531;52.152;6.366;2022-12-17T01:00:30;43.67;;;26.80;;
57697;SDS011;43531;52.152;6.366;2022-12-17T01:01:20;41.63;;;25.27;;
57697;SDS011;43531;52.152;6.366;2022-12-17T01:02:11;45.70;;;26.25;;
57697;SDS011;43531;52.152;6.366;2022-12-17T01:03:11;51.60;;;27.50;;
57697;SDS011;43531;52.152;6.366;2022-12-17T01:04:02;44.85;;;26.00;;
57697;SDS011;43531;52.152;6.366;2022-12-17T01:04:53;59.88;;;27.05;;
57697;SDS011;43531;52.152;6.366;2022-12-17T01:05:43;46.10;;;26.58;;
57697;SDS011;43531;52.152;6.366;2022-12-17T01:06:33;57.55;;;26.58;;
57697;SDS011;43531;52.152;6.366;2022-12-17T01:07:24;45.33;;;27.55;;
57697;SDS011;43531;52.152;6.366;2022-12-17T01:08:14;45.40;;;25.10;;
57697;SDS011;43531;52.152;6.366;2022-12-17T01:09:04;47.90;;;26.42;;
57697;SDS011;43531;52.152;6.366;2022-12-17T01:09:54;52.42;;;27.67;;
57697;SDS011;43531;52.152;6.366;2022-12-17T01:10:45;51.90;;;27.50;;
57697;SDS011;43531;52.152;6.366;2022-12-17T01:11:46;54.42;;;26.70;;
57697;SDS011;43531;52.152;6.366;2022-12-17T01:12:35;50.22;;;26.70;;
57697;SDS011;43531;52.152;6.366;2022-12-17T01:13:26;50.50;;;27.77;;
57697;SDS011;43531;52.152;6.366;2022-12-17T01:14:17;44.95;;;26.25;;
57697;SDS011;43531;52.152;6.366;2022-12-17T01:15:07;50.95;;;25.10;;
57697;SDS011;43531;52.152;6.366;2022-12-17T01:16:01;47.17;;;28.50;;
57697;SDS011;43531;52.152;6.366;2022-12-17T01:17:02;45.03;;;26.70;;
57697;SDS011;43531;52.152;6.366;2022-12-17T01:17:52;52.33;;;26.35;;
57697;SDS011;43531;52.152;6.366;2022-12-17T01:18:42;47.65;;;25.63;;
57697;SDS011;43531;52.152;6.366;2022-12-17T01:19:32;52.22;;;28.55;;
57697;SDS011;43531;52.152;6.366;2022-12-17T01:20:26;53.80;;;28.35;;
57697;SDS011;43531;52.152;6.366;2022-12-17T01:21:16;52.13;;;29.20;;
57697;SDS011;43531;52.152;6.366;2022-12-17T01:22:06;51.55;;;28.98;;
57697;SDS011;43531;52.152;6.366;2022-12-17T01:22:57;49.80;;;28.40;;
57697;SDS011;43531;52.152;6.366;2022-12-17T01:23:47;50.03;;;28.27;;
57697;SDS011;43531;52.152;6.366;2022-12-17T01:24:37;54.38;;;27.55;;
57697;SDS011;43531;52.152;6.366;2022-12-17T01:25:27;57.75;;;29.40;;
57697;SDS011;43531;52.152;6.366;2022-12-17T01:26:17;58.80;;;30.67;;
57697;SDS011;43531;52.152;6.366;2022-12-17T01:27:07;57.60;;;28.48;;
57697;SDS011;43531;52.152;6.366;2022-12-17T01:27:57;56.25;;;31.15;;
57697;SDS011;43531;52.152;6.366;2022-12-17T01:28:47;53.45;;;28.98;;
57697;SDS011;43531;52.152;6.366;2022-12-17T01:29:37;48.92;;;29.13;;
57697;SDS011;43531;52.152;6.366;2022-12-17T01:30:27;62.83;;;29.58;;
57697;SDS011;43531;52.152;6.366;2022-12-17T01:31:17;50.83;;;26.67;;
57697;SDS011;43531;52.152;6.366;2022-12-17T01:32:07;50.58;;;28.30;;
57697;SDS011;43531;52.152;6.366;2022-12-17T01:33:05;52.78;;;27.05;;
57697;SDS011;43531;52.152;6.366;2022-12-17T01:33:56;56.75;;;30.45;;
57697;SDS011;43531;52.152;6.366;2022-12-17T01:34:46;51.03;;;26.85;;
57697;SDS011;43531;52.152;6.366;2022-12-17T01:35:36;50.60;;;29.67;;
57697;SDS011;43531;52.152;6.366;2022-12-17T01:36:27;61.00;;;29.73;;
57697;SDS011;43531;52.152;6.366;2022-12-17T01:37:17;61.47;;;31.13;;
57697;SDS011;43531;52.152;6.366;2022-12-17T01:38:11;57.85;;;30.38;;
57697;SDS011;43531;52.152;6.366;2022-12-17T01:39:02;55.38;;;28.60;;
57697;SDS011;43531;52.152;6.366;2022-12-17T01:39:53;61.22;;;30.70;;
57697;SDS011;43531;52.152;6.366;2022-12-17T01:40:51;51.85;;;28.73;;
57697;SDS011;43531;52.152;6.366;2022-12-17T01:41:41;58.15;;;30.75;;
57697;SDS011;43531;52.152;6.366;2022-12-17T01:42:38;53.90;;;29.80;;
57697;SDS011;43531;52.152;6.366;2022-12-17T01:43:32;59.95;;;29.63;;
57697;SDS011;43531;52.152;6.366;2022-12-17T01:45:43;66.03;;;30.83;;
57697;SDS011;43531;52.152;6.366;2022-12-17T01:46:35;56.05;;;28.05;;
57697;SDS011;43531;52.152;6.366;2022-12-17T01:47:30;54.55;;;28.58;;
57697;SDS011;43531;52.152;6.366;2022-12-17T01:48:27;52.83;;;27.25;;
57697;SDS011;43531;52.152;6.366;2022-12-17T01:49:23;49.28;;;26.08;;
57697;SDS011;43531;52.152;6.366;2022-12-17T01:50:14;51.80;;;26.88;;
57697;SDS011;43531;52.152;6.366;2022-12-17T01:51:04;63.28;;;29.27;;
57697;SDS011;43531;52.152;6.366;2022-12-17T01:51:55;54.13;;;27.48;;
57697;SDS011;43531;52.152;6.366;2022-12-17T01:52:51;55.30;;;28.98;;
57697;SDS011;43531;52.152;6.366;2022-12-17T01:53:48;47.20;;;25.80;;
57697;SDS011;43531;52.152;6.366;2022-12-17T01:54:39;65.82;;;28.67;;
57697;SDS011;43531;52.152;6.366;2022-12-17T01:55:29;55.92;;;29.05;;
57697;SDS011;43531;52.152;6.366;2022-12-17T01:56:19;67.45;;;31.67;;
57697;SDS011;43531;52.152;6.366;2022-12-17T01:57:10;54.92;;;25.85;;
57697;SDS011;43531;52.152;6.366;2022-12-17T01:58:00;67.30;;;28.83;;
57697;SDS011;43531;52.152;6.366;2022-12-17T01:58:51;61.28;;;28.40;;
57697;SDS011;43531;52.152;6.366;2022-12-17T01:59:42;63.72;;;28.98;;
57697;SDS011;43531;52.152;6.366;2022-12-17T02:00:43;49.20;;;26.30;;
57697;SDS011;43531;52.152;6.366;2022-12-17T02:01:38;59.78;;;30.82;;
57697;SDS011;43531;52.152;6.366;2022-12-17T02:02:28;50.90;;;26.88;;
57697;SDS011;43531;52.152;6.366;2022-12-17T02:03:19;59.38;;;30.38;;
57697;SDS011;43531;52.152;6.366;2022-12-17T02:04:09;57.20;;;29.45;;
57697;SDS011;43531;52.152;6.366;2022-12-17T02:05:00;56.80;;;30.08;;
57697;SDS011;43531;52.152;6.366;2022-12-17T02:07:12;60.63;;;29.38;;
57697;SDS011;43531;52.152;6.366;2022-12-17T02:09:45;58.78;;;29.75;;
57697;SDS011;43531;52.152;6.366;2022-12-17T02:11:01;58.38;;;30.23;;
57697;SDS011;43531;52.152;6.366;2022-12-17T02:12:08;64.32;;;27.75;;
57697;SDS011;43531;52.152;6.366;2022-12-17T02:13:14;53.08;;;26.70;;
57697;SDS011;43531;52.152;6.366;2022-12-17T02:14:12;62.20;;;30.25;;
57697;SDS011;43531;52.152;6.366;2022-12-17T02:15:08;49.85;;;25.98;;
57697;SDS011;43531;52.152;6.366;2022-12-17T02:16:09;59.33;;;28.75;;
57697;SDS011;43531;52.152;6.366;2022-12-17T02:17:23;56.78;;;27.85;;
57697;SDS011;43531;52.152;6.366;2022-12-17T02:18:18;54.53;;;27.00;;
57697;SDS011;43531;52.152;6.366;2022-12-17T02:19:59;63.63;;;29.20;;
57697;SDS011;43531;52.152;6.366;2022-12-17T02:20:39;61.75;;;27.67;;
57697;SDS011;43531;52.152;6.366;2022-12-17T02:21:35;55.80;;;28.80;;
57697;SDS011;43531;52.152;6.366;2022-12-17T02:24:54;66.32;;;30.02;;
57697;SDS011;43531;52.152;6.366;2022-12-17T02:25:55;58.00;;;28.33;;
57697;SDS011;43531;52.152;6.366;2022-12-17T02:26:52;58.50;;;29.65;;
57697;SDS011;43531;52.152;6.366;2022-12-17T02:27:43;62.38;;;28.70;;
57697;SDS011;43531;52.152;6.366;2022-12-17T02:28:34;67.90;;;28.95;;
57697;SDS011;43531;52.152;6.366;2022-12-17T02:29:25;68.20;;;29.88;;
57697;SDS011;43531;52.152;6.366;2022-12-17T02:30:18;62.03;;;29.48;;
57697;SDS011;43531;52.152;6.366;2022-12-17T02:31:08;58.30;;;29.27;;
57697;SDS011;43531;52.152;6.366;2022-12-17T02:31:59;60.35;;;29.55;;
57697;SDS011;43531;52.152;6.366;2022-12-17T02:32:50;59.15;;;30.58;;
57697;SDS011;43531;52.152;6.366;2022-12-17T02:33:42;57.10;;;28.80;;
57697;SDS011;43531;52.152;6.366;2022-12-17T02:34:45;59.95;;;29.25;;
57697;SDS011;43531;52.152;6.366;2022-12-17T02:35:39;60.42;;;27.63;;
57697;SDS011;43531;52.152;6.366;2022-12-17T02:36:34;63.25;;;29.73;;
57697;SDS011;43531;52.152;6.366;2022-12-17T02:37:24;61.28;;;29.38;;
57697;SDS011;43531;52.152;6.366;2022-12-17T02:38:18;62.47;;;30.27;;
57697;SDS011;43531;52.152;6.366;2022-12-17T02:39:14;61.45;;;28.25;;
57697;SDS011;43531;52.152;6.366;2022-12-17T02:40:04;62.00;;;29.15;;
57697;SDS011;43531;52.152;6.366;2022-12-17T02:40:55;61.17;;;29.00;;
57697;SDS011;43531;52.152;6.366;2022-12-17T02:41:49;61.65;;;28.33;;
57697;SDS011;43531;52.152;6.366;2022-12-17T02:42:44;50.75;;;26.40;;
57697;SDS011;43531;52.152;6.366;2022-12-17T02:43:39;57.50;;;28.33;;
57697;SDS011;43531;52.152;6.366;2022-12-17T02:44:41;64.72;;;28.00;;
57697;SDS011;43531;52.152;6.366;2022-12-17T02:45:31;58.80;;;28.70;;
57697;SDS011;43531;52.152;6.366;2022-12-17T02:46:22;66.70;;;31.73;;
57697;SDS011;43531;52.152;6.366;2022-12-17T02:47:13;56.63;;;28.40;;
57697;SDS011;43531;52.152;6.366;2022-12-17T02:48:05;61.30;;;28.38;;
57697;SDS011;43531;52.152;6.366;2022-12-17T02:48:56;61.72;;;28.15;;
57697;SDS011;43531;52.152;6.366;2022-12-17T02:49:47;57.55;;;27.08;;
57697;SDS011;43531;52.152;6.366;2022-12-17T02:50:39;49.42;;;28.15;;
57697;SDS011;43531;52.152;6.366;2022-12-17T02:51:30;54.22;;;26.65;;
57697;SDS011;43531;52.152;6.366;2022-12-17T02:52:20;57.63;;;27.02;;
57697;SDS011;43531;52.152;6.366;2022-12-17T02:53:11;53.80;;;25.45;;
57697;SDS011;43531;52.152;6.366;2022-12-17T02:54:02;54.55;;;25.55;;
57697;SDS011;43531;52.152;6.366;2022-12-17T02:54:52;53.15;;;23.75;;
57697;SDS011;43531;52.152;6.366;2022-12-17T02:55:43;64.40;;;28.85;;
57697;SDS011;43531;52.152;6.366;2022-12-17T02:56:36;56.98;;;29.08;;
57697;SDS011;43531;52.152;6.366;2022-12-17T02:58:24;57.04;;;26.06;;
57697;SDS011;43531;52.152;6.366;2022-12-17T02:59:16;58.10;;;25.76;;
57697;SDS011;43531;52.152;6.366;2022-12-17T03:00:13;65.72;;;28.08;;
57697;SDS011;43531;52.152;6.366;2022-12-17T03:01:04;50.75;;;24.88;;
57697;SDS011;43531;52.152;6.366;2022-12-17T03:01:54;62.22;;;27.65;;
57697;SDS011;43531;52.152;6.366;2022-12-17T03:02:45;58.28;;;25.95;;
57697;SDS011;43531;52.152;6.366;2022-12-17T03:03:35;54.42;;;28.58;;
57697;SDS011;43531;52.152;6.366;2022-12-17T03:04:25;53.22;;;27.52;;
57697;SDS011;43531;52.152;6.366;2022-12-17T03:05:15;63.64;;;29.92;;
57697;SDS011;43531;52.152;6.366;2022-12-17T03:06:16;64.30;;;27.73;;
57697;SDS011;43531;52.152;6.366;2022-12-17T03:07:08;53.50;;;26.52;;
57697;SDS011;43531;52.152;6.366;2022-12-17T03:07:58;64.94;;;29.10;;
57697;SDS011;43531;52.152;6.366;2022-12-17T03:08:48;58.75;;;27.58;;
57697;SDS011;43531;52.152;6.366;2022-12-17T03:09:39;57.35;;;26.92;;
57697;SDS011;43531;52.152;6.366;2022-12-17T03:10:29;61.25;;;29.30;;
57697;SDS011;43531;52.152;6.366;2022-12-17T03:11:19;57.08;;;29.35;;
57697;SDS011;43531;52.152;6.366;2022-12-17T03:12:29;62.63;;;26.20;;
57697;SDS011;43531;52.152;6.366;2022-12-17T03:13:20;48.76;;;24.76;;
57697;SDS011;43531;52.152;6.366;2022-12-17T03:14:12;56.40;;;25.40;;
57697;SDS011;43531;52.152;6.366;2022-12-17T03:15:02;66.20;;;30.25;;
57697;SDS011;43531;52.152;6.366;2022-12-17T03:15:52;57.42;;;27.98;;
57697;SDS011;43531;52.152;6.366;2022-12-17T03:16:42;62.92;;;28.42;;
57697;SDS011;43531;52.152;6.366;2022-12-17T03:17:32;57.48;;;28.38;;
57697;SDS011;43531;52.152;6.366;2022-12-17T03:18:22;56.28;;;29.48;;
57697;SDS011;43531;52.152;6.366;2022-12-17T03:19:12;61.94;;;26.74;;
57697;SDS011;43531;52.152;6.366;2022-12-17T03:20:03;66.16;;;29.86;;
57697;SDS011;43531;52.152;6.366;2022-12-17T03:20:54;62.08;;;27.67;;
57697;SDS011;43531;52.152;6.366;2022-12-17T03:21:44;55.72;;;26.38;;
57697;SDS011;43531;52.152;6.366;2022-12-17T03:22:35;65.25;;;27.40;;
57697;SDS011;43531;52.152;6.366;2022-12-17T03:23:25;63.08;;;29.77;;
57697;SDS011;43531;52.152;6.366;2022-12-17T03:24:15;58.20;;;27.73;;
57697;SDS011;43531;52.152;6.366;2022-12-17T03:25:05;62.38;;;27.77;;
57697;SDS011;43531;52.152;6.366;2022-12-17T03:25:59;66.75;;;28.10;;
57697;SDS011;43531;52.152;6.366;2022-12-17T03:26:51;62.67;;;27.00;;
57697;SDS011;43531;52.152;6.366;2022-12-17T03:27:41;67.07;;;27.63;;
57697;SDS011;43531;52.152;6.366;2022-12-17T03:28:34;57.58;;;26.70;;
57697;SDS011;43531;52.152;6.366;2022-12-17T03:29:24;69.32;;;28.70;;
57697;SDS011;43531;52.152;6.366;2022-12-17T03:30:14;65.52;;;29.18;;
57697;SDS011;43531;52.152;6.366;2022-12-17T03:31:07;45.04;;;24.00;;
57697;SDS011;43531;52.152;6.366;2022-12-17T03:31:57;55.72;;;27.88;;
57697;SDS011;43531;52.152;6.366;2022-12-17T03:32:47;60.53;;;29.55;;
57697;SDS011;43531;52.152;6.366;2022-12-17T03:33:37;60.08;;;25.58;;
57697;SDS011;43531;52.152;6.366;2022-12-17T03:34:27;66.10;;;28.25;;
57697;SDS011;43531;52.152;6.366;2022-12-17T03:35:18;55.22;;;27.38;;
57697;SDS011;43531;52.152;6.366;2022-12-17T03:36:10;62.08;;;28.50;;
57697;SDS011;43531;52.152;6.366;2022-12-17T03:37:06;59.34;;;26.44;;
57697;SDS011;43531;52.152;6.366;2022-12-17T03:37:57;62.38;;;28.20;;
57697;SDS011;43531;52.152;6.366;2022-12-17T03:38:47;58.52;;;26.32;;
57697;SDS011;43531;52.152;6.366;2022-12-17T03:39:37;54.08;;;25.40;;
57697;SDS011;43531;52.152;6.366;2022-12-17T03:40:29;54.22;;;24.90;;
57697;SDS011;43531;52.152;6.366;2022-12-17T03:41:19;59.75;;;26.02;;
57697;SDS011;43531;52.152;6.366;2022-12-17T03:42:09;56.58;;;27.24;;
57697;SDS011;43531;52.152;6.366;2022-12-17T03:43:04;63.40;;;27.42;;
57697;SDS011;43531;52.152;6.366;2022-12-17T03:43:55;61.72;;;25.98;;
57697;SDS011;43531;52.152;6.366;2022-12-17T03:44:46;61.05;;;28.77;;
57697;SDS011;43531;52.152;6.366;2022-12-17T03:45:36;58.55;;;26.75;;
57697;SDS011;43531;52.152;6.366;2022-12-17T03:46:27;65.22;;;26.35;;
57697;SDS011;43531;52.152;6.366;2022-12-17T03:47:17;60.03;;;25.70;;
57697;SDS011;43531;52.152;6.366;2022-12-17T03:48:08;56.17;;;27.50;;
57697;SDS011;43531;52.152;6.366;2022-12-17T03:49:03;61.63;;;27.08;;
57697;SDS011;43531;52.152;6.366;2022-12-17T03:49:53;60.28;;;25.36;;
57697;SDS011;43531;52.152;6.366;2022-12-17T03:50:43;55.40;;;26.90;;
57697;SDS011;43531;52.152;6.366;2022-12-17T03:51:33;48.36;;;25.66;;
57697;SDS011;43531;52.152;6.366;2022-12-17T03:52:23;65.32;;;27.55;;
57697;SDS011;43531;52.152;6.366;2022-12-17T03:53:13;65.10;;;29.00;;
57697;SDS011;43531;52.152;6.366;2022-12-17T03:54:04;64.03;;;28.27;;
57697;SDS011;43531;52.152;6.366;2022-12-17T03:54:54;54.35;;;27.65;;
57697;SDS011;43531;52.152;6.366;2022-12-17T03:55:44;55.08;;;27.38;;
57697;SDS011;43531;52.152;6.366;2022-12-17T03:56:34;61.75;;;29.67;;
57697;SDS011;43531;52.152;6.366;2022-12-17T03:57:24;52.15;;;26.55;;
57697;SDS011;43531;52.152;6.366;2022-12-17T03:58:14;70.47;;;28.52;;
57697;SDS011;43531;52.152;6.366;2022-12-17T03:59:04;64.22;;;29.92;;
57697;SDS011;43531;52.152;6.366;2022-12-17T03:59:55;64.60;;;30.10;;
57697;SDS011;43531;52.152;6.366;2022-12-17T04:00:45;68.72;;;30.83;;
57697;SDS011;43531;52.152;6.366;2022-12-17T04:01:35;63.15;;;28.52;;
57697;SDS011;43531;52.152;6.366;2022-12-17T04:02:26;55.00;;;25.10;;
57697;SDS011;43531;52.152;6.366;2022-12-17T04:03:16;57.58;;;28.77;;
57697;SDS011;43531;52.152;6.366;2022-12-17T04:04:07;53.90;;;27.30;;
57697;SDS011;43531;52.152;6.366;2022-12-17T04:04:56;66.28;;;28.73;;
57697;SDS011;43531;52.152;6.366;2022-12-17T04:05:50;60.85;;;28.52;;
57697;SDS011;43531;52.152;6.366;2022-12-17T04:06:40;60.82;;;29.18;;
57697;SDS011;43531;52.152;6.366;2022-12-17T04:07:30;60.47;;;28.55;;
57697;SDS011;43531;52.152;6.366;2022-12-17T04:08:23;60.90;;;28.08;;
57697;SDS011;43531;52.152;6.366;2022-12-17T04:09:13;60.15;;;24.80;;
57697;SDS011;43531;52.152;6.366;2022-12-17T04:10:04;62.92;;;28.02;;
57697;SDS011;43531;52.152;6.366;2022-12-17T04:10:54;61.25;;;28.00;;
57697;SDS011;43531;52.152;6.366;2022-12-17T04:11:44;74.24;;;30.68;;
57697;SDS011;43531;52.152;6.366;2022-12-17T04:12:34;55.92;;;26.65;;
57697;SDS011;43531;52.152;6.366;2022-12-17T04:13:24;65.38;;;28.85;;
57697;SDS011;43531;52.152;6.366;2022-12-17T04:14:15;58.42;;;28.08;;
57697;SDS011;43531;52.152;6.366;2022-12-17T04:15:05;55.98;;;26.32;;
57697;SDS011;43531;52.152;6.366;2022-12-17T04:15:55;61.85;;;29.48;;
57697;SDS011;43531;52.152;6.366;2022-12-17T04:16:45;50.92;;;27.20;;
57697;SDS011;43531;52.152;6.366;2022-12-17T04:17:35;54.88;;;26.60;;
57697;SDS011;43531;52.152;6.366;2022-12-17T04:18:25;65.35;;;29.50;;
57697;SDS011;43531;52.152;6.366;2022-12-17T04:19:15;63.22;;;26.80;;
57697;SDS011;43531;52.152;6.366;2022-12-17T04:20:06;62.08;;;28.80;;
57697;SDS011;43531;52.152;6.366;2022-12-17T04:20:56;56.55;;;27.13;;
57697;SDS011;43531;52.152;6.366;2022-12-17T04:21:46;62.13;;;28.75;;
57697;SDS011;43531;52.152;6.366;2022-12-17T04:22:36;63.45;;;28.40;;
57697;SDS011;43531;52.152;6.366;2022-12-17T04:23:26;67.50;;;29.40;;
57697;SDS011;43531;52.152;6.366;2022-12-17T04:24:16;74.80;;;28.85;;
57697;SDS011;43531;52.152;6.366;2022-12-17T04:25:07;67.53;;;28.80;;
57697;SDS011;43531;52.152;6.366;2022-12-17T04:25:59;60.53;;;28.10;;
57697;SDS011;43531;52.152;6.366;2022-12-17T04:26:49;56.28;;;26.23;;
57697;SDS011;43531;52.152;6.366;2022-12-17T04:27:40;58.88;;;25.83;;
57697;SDS011;43531;52.152;6.366;2022-12-17T04:28:30;57.88;;;28.17;;
57697;SDS011;43531;52.152;6.366;2022-12-17T04:29:20;56.33;;;28.92;;
57697;SDS011;43531;52.152;6.366;2022-12-17T04:30:11;56.90;;;27.58;;
57697;SDS011;43531;52.152;6.366;2022-12-17T04:31:01;56.47;;;26.48;;
57697;SDS011;43531;52.152;6.366;2022-12-17T04:31:51;65.90;;;27.98;;
57697;SDS011;43531;52.152;6.366;2022-12-17T04:32:41;60.85;;;30.38;;
57697;SDS011;43531;52.152;6.366;2022-12-17T04:33:31;59.17;;;27.35;;
57697;SDS011;43531;52.152;6.366;2022-12-17T04:34:21;53.10;;;25.23;;
57697;SDS011;43531;52.152;6.366;2022-12-17T04:35:14;59.30;;;27.80;;
57697;SDS011;43531;52.152;6.366;2022-12-17T04:36:04;67.47;;;29.10;;
57697;SDS011;43531;52.152;6.366;2022-12-17T04:36:54;53.22;;;25.45;;
57697;SDS011;43531;52.152;6.366;2022-12-17T04:37:44;64.20;;;25.48;;
57697;SDS011;43531;52.152;6.366;2022-12-17T04:38:34;52.00;;;24.35;;
57697;SDS011;43531;52.152;6.366;2022-12-17T04:39:24;58.58;;;27.45;;
57697;SDS011;43531;52.152;6.366;2022-12-17T04:40:14;68.75;;;29.17;;
57697;SDS011;43531;52.152;6.366;2022-12-17T04:41:04;54.05;;;27.65;;
57697;SDS011;43531;52.152;6.366;2022-12-17T04:41:54;57.65;;;26.40;;
57697;SDS011;43531;52.152;6.366;2022-12-17T04:42:44;56.25;;;25.38;;
57697;SDS011;43531;52.152;6.366;2022-12-17T04:43:34;62.65;;;26.67;;
57697;SDS011;43531;52.152;6.366;2022-12-17T04:44:32;58.55;;;26.33;;
57697;SDS011;43531;52.152;6.366;2022-12-17T04:45:23;60.58;;;25.85;;
57697;SDS011;43531;52.152;6.366;2022-12-17T04:46:13;68.95;;;28.55;;
57697;SDS011;43531;52.152;6.366;2022-12-17T04:47:03;56.00;;;27.85;;
57697;SDS011;43531;52.152;6.366;2022-12-17T04:48:07;59.88;;;27.42;;
57697;SDS011;43531;52.152;6.366;2022-12-17T04:49:48;55.38;;;26.10;;
57697;SDS011;43531;52.152;6.366;2022-12-17T04:50:38;63.70;;;27.92;;
57697;SDS011;43531;52.152;6.366;2022-12-17T04:51:28;56.90;;;26.85;;
57697;SDS011;43531;52.152;6.366;2022-12-17T04:52:18;52.85;;;26.92;;
57697;SDS011;43531;52.152;6.366;2022-12-17T04:53:08;70.28;;;28.48;;
57697;SDS011;43531;52.152;6.366;2022-12-17T04:53:59;49.97;;;25.05;;
57697;SDS011;43531;52.152;6.366;2022-12-17T04:54:53;69.18;;;29.35;;
57697;SDS011;43531;52.152;6.366;2022-12-17T04:55:43;62.15;;;27.10;;
57697;SDS011;43531;52.152;6.366;2022-12-17T04:56:33;57.38;;;25.83;;
57697;SDS011;43531;52.152;6.366;2022-12-17T04:57:24;59.60;;;28.10;;
57697;SDS011;43531;52.152;6.366;2022-12-17T04:58:14;56.90;;;27.50;;
57697;SDS011;43531;52.152;6.366;2022-12-17T04:59:07;61.30;;;29.15;;
57697;SDS011;43531;52.152;6.366;2022-12-17T04:59:57;59.53;;;26.92;;
57697;SDS011;43531;52.152;6.366;2022-12-17T05:00:50;59.58;;;26.63;;
57697;SDS011;43531;52.152;6.366;2022-12-17T05:01:44;53.78;;;24.60;;
57697;SDS011;43531;52.152;6.366;2022-12-17T05:02:34;64.88;;;27.80;;
57697;SDS011;43531;52.152;6.366;2022-12-17T05:03:24;67.28;;;26.95;;
57697;SDS011;43531;52.152;6.366;2022-12-17T05:04:15;58.03;;;26.80;;
57697;SDS011;43531;52.152;6.366;2022-12-17T05:05:05;60.58;;;27.00;;
57697;SDS011;43531;52.152;6.366;2022-12-17T05:05:56;58.45;;;27.98;;
57697;SDS011;43531;52.152;6.366;2022-12-17T05:06:46;60.13;;;27.23;;
57697;SDS011;43531;52.152;6.366;2022-12-17T05:07:36;58.22;;;25.88;;
57697;SDS011;43531;52.152;6.366;2022-12-17T05:08:26;61.05;;;28.13;;
57697;SDS011;43531;52.152;6.366;2022-12-17T05:09:16;67.57;;;28.48;;
57697;SDS011;43531;52.152;6.366;2022-12-17T05:10:06;62.55;;;27.88;;
57697;SDS011;43531;52.152;6.366;2022-12-17T05:11:05;57.63;;;27.85;;
57697;SDS011;43531;52.152;6.366;2022-12-17T05:11:55;67.47;;;30.30;;